sensor_id;sensor_type;location;lat;lon;timestamp;P1;durP1;ratioP1;P2;durP2;ratioP2
74912;SDS011;63878;55.624;37.304;2023-04-24T00:09:51;12.17;;;5.67;;
74912;SDS011;63878;55.624;37.304;2023-04-24T00:19:51;8.18;;;5.68;;
74912;SDS011;63878;55.624;37.304;2023-04-24T00:29:52;12.37;;;7.27;;
74912;SDS011;63878;55.624;37.304;2023-04-24T00:39:53;11.82;;;5.78;;
74912;SDS011;63878;55.624;37.304;2023-04-24T00:49:53;9.45;;;5.72;;
74912;SDS011;63878;55.624;37.304;2023-04-24T00:59:54;12.90;;;5.43;;
74912;SDS011;63878;55.624;37.304;2023-04-24T01:09:55;12.13;;;6.28;;
74912;SDS011;63878;55.624;37.304;2023-04-24T01:19:56;11.18;;;6.20;;
74912;SDS011;63878;55.624;37.304;2023-04-24T01:29:56;9.70;;;5.78;;
74912;SDS011;63878;55.624;37.304;2023-04-24T01:39:57;11.70;;;6.90;;
74912;SDS011;63878;55.624;37.304;2023-04-24T01:49:58;10.60;;;5.65;;
74912;SDS011;63878;55.624;37.304;2023-04-24T01:59:59;12.85;;;6.13;;
74912;SDS011;63878;55.624;37.304;2023-04-24T02:09:59;11.10;;;6.10;;
74912;SDS011;63878;55.624;37.304;2023-04-24T02:20:00;9.97;;;6.60;;
74912;SDS011;63878;55.624;37.304;2023-04-24T02:30:01;12.00;;;7.07;;
74912;SDS011;63878;55.624;37.304;2023-04-24T02:40:01;12.35;;;6.68;;
74912;SDS011;63878;55.624;37.304;2023-04-24T02:50:02;11.70;;;6.43;;
74912;SDS011;63878;55.624;37.304;2023-04-24T03:00:05;14.05;;;6.88;;
74912;SDS011;63878;55.624;37.304;2023-04-24T03:20:08;10.43;;;6.95;;
74912;SDS011;63878;55.624;37.304;2023-04-24T03:30:10;10.90;;;6.82;;
74912;SDS011;63878;55.624;37.304;2023-04-24T03:40:11;9.43;;;6.80;;
74912;SDS011;63878;55.624;37.304;2023-04-24T03:50:12;10.95;;;7.10;;
74912;SDS011;63878;55.624;37.304;2023-04-24T04:00:12;10.70;;;6.55;;
74912;SDS011;63878;55.624;37.304;2023-04-24T04:10:13;11.57;;;6.90;;
74912;SDS011;63878;55.624;37.304;2023-04-24T04:20:13;13.02;;;7.22;;
74912;SDS011;63878;55.624;37.304;2023-04-24T04:30:14;10.27;;;8.17;;
74912;SDS011;63878;55.624;37.304;2023-04-24T04:40:15;10.80;;;7.00;;
74912;SDS011;63878;55.624;37.304;2023-04-24T04:50:15;11.82;;;8.57;;
74912;SDS011;63878;55.624;37.304;2023-04-24T05:00:16;10.73;;;7.53;;
74912;SDS011;63878;55.624;37.304;2023-04-24T05:10:17;11.75;;;7.40;;
74912;SDS011;63878;55.624;37.304;2023-04-24T05:20:17;12.70;;;8.13;;
74912;SDS011;63878;55.624;37.304;2023-04-24T05:30:18;9.60;;;6.97;;
74912;SDS011;63878;55.624;37.304;2023-04-24T05:40:18;7.97;;;6.35;;
74912;SDS011;63878;55.624;37.304;2023-04-24T05:50:19;5.80;;;5.00;;
74912;SDS011;63878;55.624;37.304;2023-04-24T06:00:20;7.23;;;5.27;;
74912;SDS011;63878;55.624;37.304;2023-04-24T06:10:20;12.15;;;5.18;;
74912;SDS011;63878;55.624;37.304;2023-04-24T06:20:21;8.52;;;6.63;;
74912;SDS011;63878;55.624;37.304;2023-04-24T06:30:22;9.00;;;5.03;;
74912;SDS011;63878;55.624;37.304;2023-04-24T06:40:23;11.32;;;5.55;;
74912;SDS011;63878;55.624;37.304;2023-04-24T06:50:24;5.03;;;4.50;;
74912;SDS011;63878;55.624;37.304;2023-04-24T07:00:24;6.10;;;4.63;;
74912;SDS011;63878;55.624;37.304;2023-04-24T07:10:25;9.98;;;6.03;;
74912;SDS011;63878;55.624;37.304;2023-04-24T07:20:26;13.03;;;4.50;;
74912;SDS011;63878;55.624;37.304;2023-04-24T07:30:26;7.27;;;3.53;;
74912;SDS011;63878;55.624;37.304;2023-04-24T07:40:27;4.25;;;2.55;;
74912;SDS011;63878;55.624;37.304;2023-04-24T07:50:28;5.38;;;4.05;;
74912;SDS011;63878;55.624;37.304;2023-04-24T08:00:28;8.10;;;4.07;;
74912;SDS011;63878;55.624;37.304;2023-04-24T08:10:29;4.70;;;2.53;;
74912;SDS011;63878;55.624;37.304;2023-04-24T08:20:30;8.15;;;4.38;;
74912;SDS011;63878;55.624;37.304;2023-04-24T08:30:30;4.23;;;3.60;;
74912;SDS011;63878;55.624;37.304;2023-04-24T08:40:31;4.35;;;3.60;;
74912;SDS011;63878;55.624;37.304;2023-04-24T08:50:34;5.93;;;3.67;;
74912;SDS011;63878;55.624;37.304;2023-04-24T09:00:35;6.35;;;3.83;;
74912;SDS011;63878;55.624;37.304;2023-04-24T09:10:39;4.32;;;3.20;;
74912;SDS011;63878;55.624;37.304;2023-04-24T09:31:14;5.10;;;4.30;;
74912;SDS011;63878;55.624;37.304;2023-04-24T09:41:18;5.07;;;3.53;;
74912;SDS011;63878;55.624;37.304;2023-04-24T09:51:18;6.07;;;4.20;;
74912;SDS011;63878;55.624;37.304;2023-04-24T10:01:34;4.75;;;3.72;;
74912;SDS011;63878;55.624;37.304;2023-04-24T10:11:35;4.85;;;3.17;;
74912;SDS011;63878;55.624;37.304;2023-04-24T10:21:37;4.13;;;3.33;;
74912;SDS011;63878;55.624;37.304;2023-04-24T10:31:38;6.88;;;3.13;;
74912;SDS011;63878;55.624;37.304;2023-04-24T10:41:39;4.72;;;3.70;;
74912;SDS011;63878;55.624;37.304;2023-04-24T11:01:51;4.18;;;2.45;;
74912;SDS011;63878;55.624;37.304;2023-04-24T11:12:02;3.70;;;2.35;;
74912;SDS011;63878;55.624;37.304;2023-04-24T11:22:06;4.18;;;2.80;;
74912;SDS011;63878;55.624;37.304;2023-04-24T11:32:15;4.20;;;3.00;;
74912;SDS011;63878;55.624;37.304;2023-04-24T11:42:19;3.90;;;2.78;;
74912;SDS011;63878;55.624;37.304;2023-04-24T11:52:21;2.90;;;1.77;;
74912;SDS011;63878;55.624;37.304;2023-04-24T12:02:22;3.70;;;2.97;;
74912;SDS011;63878;55.624;37.304;2023-04-24T12:12:25;3.50;;;3.20;;
74912;SDS011;63878;55.624;37.304;2023-04-24T12:22:26;4.45;;;2.75;;
74912;SDS011;63878;55.624;37.304;2023-04-24T12:32:27;2.38;;;1.80;;
74912;SDS011;63878;55.624;37.304;2023-04-24T12:42:28;4.07;;;2.60;;
74912;SDS011;63878;55.624;37.304;2023-04-24T12:52:30;6.55;;;3.70;;
74912;SDS011;63878;55.624;37.304;2023-04-24T13:02:31;4.10;;;3.43;;
74912;SDS011;63878;55.624;37.304;2023-04-24T13:12:31;3.23;;;2.93;;
74912;SDS011;63878;55.624;37.304;2023-04-24T13:22:32;5.38;;;3.33;;
74912;SDS011;63878;55.624;37.304;2023-04-24T13:32:32;4.53;;;3.28;;
74912;SDS011;63878;55.624;37.304;2023-04-24T13:42:33;4.10;;;3.70;;
74912;SDS011;63878;55.624;37.304;2023-04-24T13:52:35;4.47;;;3.60;;
74912;SDS011;63878;55.624;37.304;2023-04-24T14:02:36;6.32;;;3.50;;
74912;SDS011;63878;55.624;37.304;2023-04-24T14:12:36;4.90;;;3.67;;
74912;SDS011;63878;55.624;37.304;2023-04-24T14:22:37;4.55;;;3.40;;
74912;SDS011;63878;55.624;37.304;2023-04-24T14:32:38;4.63;;;3.20;;
74912;SDS011;63878;55.624;37.304;2023-04-24T14:42:39;4.97;;;3.08;;
74912;SDS011;63878;55.624;37.304;2023-04-24T14:52:40;4.75;;;3.20;;
74912;SDS011;63878;55.624;37.304;2023-04-24T15:02:40;6.43;;;4.93;;
74912;SDS011;63878;55.624;37.304;2023-04-24T15:12:41;4.38;;;2.70;;
74912;SDS011;63878;55.624;37.304;2023-04-24T15:22:42;4.07;;;3.10;;
74912;SDS011;63878;55.624;37.304;2023-04-24T15:32:42;3.47;;;2.80;;
74912;SDS011;63878;55.624;37.304;2023-04-24T15:42:43;2.60;;;2.40;;
74912;SDS011;63878;55.624;37.304;2023-04-24T15:52:43;1.80;;;1.42;;
74912;SDS011;63878;55.624;37.304;2023-04-24T16:02:44;3.83;;;2.45;;
74912;SDS011;63878;55.624;37.304;2023-04-24T16:12:45;4.43;;;2.60;;
74912;SDS011;63878;55.624;37.304;2023-04-24T16:22:45;4.37;;;2.73;;
74912;SDS011;63878;55.624;37.304;2023-04-24T16:32:46;5.87;;;2.80;;
74912;SDS011;63878;55.624;37.304;2023-04-24T16:42:46;2.85;;;2.15;;
74912;SDS011;63878;55.624;37.304;2023-04-24T16:52:47;4.32;;;2.60;;
74912;SDS011;63878;55.624;37.304;2023-04-24T17:02:48;5.68;;;2.75;;
74912;SDS011;63878;55.624;37.304;2023-04-24T17:12:48;3.80;;;2.13;;
74912;SDS011;63878;55.624;37.304;2023-04-24T17:22:49;4.65;;;3.38;;
74912;SDS011;63878;55.624;37.304;2023-04-24T17:32:50;6.55;;;3.75;;
74912;SDS011;63878;55.624;37.304;2023-04-24T17:42:50;7.65;;;3.63;;
74912;SDS011;63878;55.624;37.304;2023-04-24T17:52:51;8.88;;;3.95;;
74912;SDS011;63878;55.624;37.304;2023-04-24T18:02:52;8.05;;;4.10;;
74912;SDS011;63878;55.624;37.304;2023-04-24T18:12:52;6.77;;;3.63;;
74912;SDS011;63878;55.624;37.304;2023-04-24T18:22:53;5.63;;;3.83;;
74912;SDS011;63878;55.624;37.304;2023-04-24T18:32:54;5.00;;;3.55;;
74912;SDS011;63878;55.624;37.304;2023-04-24T18:42:55;6.43;;;3.97;;
74912;SDS011;63878;55.624;37.304;2023-04-24T18:52:55;5.73;;;3.90;;
74912;SDS011;63878;55.624;37.304;2023-04-24T19:02:56;7.07;;;4.00;;
74912;SDS011;63878;55.624;37.304;2023-04-24T19:12:57;8.27;;;4.33;;
74912;SDS011;63878;55.624;37.304;2023-04-24T19:22:58;12.70;;;5.90;;
74912;SDS011;63878;55.624;37.304;2023-04-24T19:32:58;8.85;;;4.47;;
74912;SDS011;63878;55.624;37.304;2023-04-24T19:42:59;8.02;;;3.88;;
74912;SDS011;63878;55.624;37.304;2023-04-24T19:53:00;8.13;;;4.17;;
74912;SDS011;63878;55.624;37.304;2023-04-24T20:03:00;6.63;;;4.20;;
74912;SDS011;63878;55.624;37.304;2023-04-24T20:13:01;9.03;;;4.23;;
74912;SDS011;63878;55.624;37.304;2023-04-24T20:23:01;7.82;;;4.18;;
74912;SDS011;63878;55.624;37.304;2023-04-24T20:33:02;7.07;;;4.15;;
74912;SDS011;63878;55.624;37.304;2023-04-24T20:43:02;6.65;;;4.25;;
74912;SDS011;63878;55.624;37.304;2023-04-24T20:53:04;8.30;;;4.90;;
74912;SDS011;63878;55.624;37.304;2023-04-24T21:03:05;7.72;;;4.43;;
74912;SDS011;63878;55.624;37.304;2023-04-24T21:13:05;9.13;;;4.00;;
74912;SDS011;63878;55.624;37.304;2023-04-24T21:23:06;8.30;;;4.55;;
74912;SDS011;63878;55.624;37.304;2023-04-24T21:33:07;6.75;;;4.43;;
74912;SDS011;63878;55.624;37.304;2023-04-24T21:43:08;8.63;;;4.90;;
74912;SDS011;63878;55.624;37.304;2023-04-24T21:53:08;8.60;;;5.13;;
74912;SDS011;63878;55.624;37.304;2023-04-24T22:03:09;8.57;;;5.68;;
74912;SDS011;63878;55.624;37.304;2023-04-24T22:13:10;10.77;;;5.87;;
74912;SDS011;63878;55.624;37.304;2023-04-24T22:23:11;10.67;;;5.63;;
74912;SDS011;63878;55.624;37.304;2023-04-24T22:33:12;8.30;;;5.72;;
74912;SDS011;63878;55.624;37.304;2023-04-24T22:43:12;9.67;;;5.30;;
74912;SDS011;63878;55.624;37.304;2023-04-24T22:53:13;4.90;;;3.60;;
74912;SDS011;63878;55.624;37.304;2023-04-24T23:03:16;6.47;;;3.30;;
74912;SDS011;63878;55.624;37.304;2023-04-24T23:13:17;7.07;;;4.97;;
74912;SDS011;63878;55.624;37.304;2023-04-24T23:23:18;9.15;;;4.03;;
74912;SDS011;63878;55.624;37.304;2023-04-24T23:33:19;8.25;;;5.03;;
74912;SDS011;63878;55.624;37.304;2023-04-24T23:43:19;6.40;;;3.90;;
74912;SDS011;63878;55.624;37.304;2023-04-24T23:53:20;7.63;;;3.58;;
